createdAt,value
2023-03-06T00:00:31.293Z,97429.22
2023-03-06T00:01:34.195Z,97439.19
2023-03-06T00:02:37.123Z,97440.06
2023-03-06T00:03:40.038Z,97439.91
2023-03-06T00:04:43.111Z,97435.53
2023-03-06T00:05:46.484Z,97438.25
2023-03-06T00:06:49.383Z,97435.75
2023-03-06T00:07:52.406Z,97438.63
2023-03-06T00:08:55.350Z,97436.66
2023-03-06T00:09:58.496Z,97431.78
2023-03-06T00:11:01.624Z,97435.22
2023-03-06T00:12:04.871Z,97439.91
2023-03-06T00:13:12.090Z,97438.09
2023-03-06T00:14:15.096Z,97433.22
2023-03-06T00:15:18.090Z,97435.94
2023-03-06T00:16:21.120Z,97439.91
2023-03-06T00:17:24.417Z,97430.19
2023-03-06T00:19:30.799Z,97426.75
2023-03-06T00:20:35.557Z,97433.06
2023-03-06T00:21:41.459Z,97424.78
2023-03-06T00:22:44.666Z,97424.78
2023-03-06T00:23:47.603Z,97430.19
2023-03-06T00:24:54.102Z,97424.56
2023-03-06T00:25:56.993Z,97426.94
2023-03-06T00:27:00.128Z,97436.84
2023-03-06T00:28:03.433Z,97428.00
2023-03-06T00:29:06.541Z,97428.94
2023-03-06T00:30:14.034Z,97426.22
2023-03-06T00:31:17.422Z,97423.84
2023-03-06T00:32:20.601Z,97422.94
2023-03-06T00:33:23.549Z,97422.41
2023-03-06T00:34:26.638Z,97417.53
2023-03-06T00:35:29.760Z,97417.34
2023-03-06T00:36:32.793Z,97416.09
2023-03-06T00:37:35.791Z,97419.69
2023-03-06T00:38:38.782Z,97418.97
2023-03-06T00:39:42.167Z,97419.53
2023-03-06T00:40:45.378Z,97411.03
2023-03-06T00:41:48.262Z,97416.28
2023-03-06T00:42:51.274Z,97417.53
2023-03-06T00:43:54.109Z,97412.66
2023-03-06T00:44:56.944Z,97418.97
2023-03-06T00:46:00.068Z,97410.31
2023-03-06T00:47:03.206Z,97410.31
2023-03-06T00:48:06.718Z,97406.72
2023-03-06T00:49:09.669Z,97407.97
2023-03-06T00:50:12.920Z,97411.41
2023-03-06T00:51:17.509Z,97410.69
2023-03-06T00:52:20.540Z,97409.97
2023-03-06T00:53:23.562Z,97410.69
2023-03-06T00:54:26.561Z,97402.94
2023-03-06T00:55:31.246Z,97406.34
2023-03-06T00:56:34.608Z,97411.25
2023-03-06T00:57:38.162Z,97403.84
2023-03-06T00:58:42.040Z,97409.81
2023-03-06T00:59:46.298Z,97404.91
2023-03-06T01:00:49.755Z,97408.53
2023-03-06T01:01:52.950Z,97409.28
2023-03-06T01:02:56.349Z,97410.00
2023-03-06T01:03:59.521Z,97397.72
2023-03-06T01:05:02.857Z,97401.69
2023-03-06T01:06:06.284Z,97400.44
2023-03-06T01:07:09.618Z,97395.37
2023-03-06T01:08:12.757Z,97397.41
2023-03-06T01:09:16.262Z,97391.28
2023-03-06T01:10:19.527Z,97388.91
2023-03-06T01:11:22.769Z,97387.47
2023-03-06T01:12:25.898Z,97394.87
2023-03-06T01:13:28.712Z,97391.63
2023-03-06T01:14:32.303Z,97384.41
2023-03-06T01:15:35.387Z,97382.94
2023-03-06T01:16:38.760Z,97394.87
2023-03-06T01:17:41.834Z,97383.34
2023-03-06T01:18:45.592Z,97387.31
2023-03-06T01:19:48.490Z,97391.28
2023-03-06T01:20:51.643Z,97384.22
2023-03-06T01:21:55.078Z,97386.75
2023-03-06T01:22:58.160Z,97386.59
2023-03-06T01:24:01.112Z,97391.28
2023-03-06T01:25:04.291Z,97393.06
2023-03-06T01:26:07.592Z,97390.88
2023-03-06T01:27:10.937Z,97390.16
2023-03-06T01:28:13.960Z,97394.87
2023-03-06T01:29:16.944Z,97390.16
2023-03-06T01:30:20.987Z,97385.16
2023-03-06T01:31:25.386Z,97392.19
2023-03-06T01:32:28.344Z,97381.16
2023-03-06T01:33:31.613Z,97383.34
2023-03-06T01:34:34.588Z,97375.94
2023-03-06T01:35:38.925Z,97380.81
2023-03-06T01:36:42.239Z,97372.69
2023-03-06T01:37:45.689Z,97376.12
2023-03-06T01:38:48.661Z,97373.41
2023-03-06T01:39:52.017Z,97373.22
2023-03-06T01:40:54.979Z,97378.66
2023-03-06T01:41:58.231Z,97371.06
2023-03-06T01:43:10.977Z,97366.38
2023-03-06T01:44:14.001Z,97370.34
2023-03-06T01:45:16.816Z,97365.66
2023-03-06T01:46:42.218Z,97373.06
2023-03-06T01:47:45.493Z,97379.72
2023-03-06T01:48:51.863Z,97372.84
2023-03-06T01:49:56.528Z,97378.97
2023-03-06T01:50:59.846Z,97374.50
2023-03-06T01:52:11.235Z,97369.81
2023-03-06T01:53:15.614Z,97375.75
2023-03-06T01:54:24.752Z,97377.94
2023-03-06T01:55:33.138Z,97375.03
2023-03-06T01:56:37.152Z,97370.87
2023-03-06T01:57:52.955Z,97370.87
2023-03-06T01:58:57.417Z,97370.16
2023-03-06T02:00:07.053Z,97373.97
2023-03-06T02:01:12.391Z,97375.22
2023-03-06T02:02:16.549Z,97373.06
2023-03-06T02:03:25.720Z,97378.47
2023-03-06T02:04:29.578Z,97373.06
2023-03-06T02:05:33.627Z,97371.78
2023-03-06T02:06:38.697Z,97371.06
2023-03-06T02:07:43.199Z,97375.75
2023-03-06T02:08:52.339Z,97375.75
2023-03-06T02:09:55.325Z,97369.97
2023-03-06T02:11:16.339Z,97374.69
2023-03-06T02:12:20.830Z,97373.06
2023-03-06T02:13:23.985Z,97373.06
2023-03-06T02:14:27.144Z,97363.50
2023-03-06T02:15:31.104Z,97362.75
2023-03-06T02:16:34.891Z,97368.91
2023-03-06T02:17:38.495Z,97367.81
2023-03-06T02:18:43.072Z,97371.44
2023-03-06T02:19:56.702Z,97366.03
2023-03-06T02:21:09.527Z,97370.38
2023-03-06T02:22:12.610Z,97364.22
2023-03-06T02:23:40.927Z,97375.06
2023-03-06T02:24:52.793Z,97366.75
2023-03-06T02:25:57.598Z,97371.97
2023-03-06T02:27:03.387Z,97367.81
2023-03-06T02:28:10.415Z,97370.38
2023-03-06T02:29:19.460Z,97364.94
2023-03-06T02:30:23.969Z,97363.69
2023-03-06T02:31:31.046Z,97371.09
2023-03-06T02:32:34.046Z,97364.41
2023-03-06T02:33:37.091Z,97361.34
2023-03-06T02:34:39.967Z,97362.09
2023-03-06T02:35:58.675Z,97352.69
2023-03-06T02:37:09.212Z,97357.94
2023-03-06T02:38:16.208Z,97363.69
2023-03-06T02:39:22.134Z,97362.41
2023-03-06T02:40:25.547Z,97360.25
2023-03-06T02:41:28.575Z,97364.94
2023-03-06T02:42:31.774Z,97363.50
2023-03-06T02:43:38.820Z,97361.34
2023-03-06T02:44:41.889Z,97367.47
2023-03-06T02:45:48.464Z,97370.91
2023-03-06T02:46:51.442Z,97361.53
2023-03-06T02:47:54.409Z,97362.41
2023-03-06T02:48:57.337Z,97363.87
2023-03-06T02:50:00.247Z,97366.78
2023-03-06T02:51:03.439Z,97364.78
2023-03-06T02:52:07.688Z,97367.31
2023-03-06T02:53:12.949Z,97366.59
2023-03-06T02:54:18.581Z,97368.59
2023-03-06T02:55:21.867Z,97369.81
2023-03-06T02:56:24.835Z,97367.66
2023-03-06T02:57:27.816Z,97366.94
2023-03-06T02:58:30.877Z,97364.41
2023-03-06T02:59:33.910Z,97365.66
2023-03-06T03:00:37.167Z,97365.13
2023-03-06T03:01:40.340Z,97366.59
2023-03-06T03:02:44.320Z,97370.19
2023-03-06T03:03:47.354Z,97365.16
2023-03-06T03:04:50.260Z,97373.28
2023-03-06T03:05:53.234Z,97366.06
2023-03-06T03:06:56.406Z,97366.06
2023-03-06T03:07:59.514Z,97357.94
2023-03-06T03:09:02.543Z,97361.19
2023-03-06T03:10:06.156Z,97362.47
2023-03-06T03:11:09.594Z,97364.63
2023-03-06T03:12:12.821Z,97363.91
2023-03-06T03:13:15.743Z,97359.75
2023-03-06T03:14:18.679Z,97360.47
2023-03-06T03:15:22.221Z,97363.00
2023-03-06T03:16:25.267Z,97360.81
2023-03-06T03:17:28.301Z,97360.62
2023-03-06T03:18:31.764Z,97361.34
2023-03-06T03:19:35.230Z,97357.22
2023-03-06T03:20:42.158Z,97359.56
2023-03-06T03:21:45.064Z,97361.03
2023-03-06T03:22:54.022Z,97355.78
2023-03-06T03:23:57.073Z,97351.63
2023-03-06T03:25:00.024Z,97359.56
2023-03-06T03:26:14.093Z,97356.13
2023-03-06T03:27:17.276Z,97354.69
2023-03-06T03:28:20.682Z,97358.81
2023-03-06T03:29:23.662Z,97347.84
2023-03-06T03:30:26.609Z,97356.50
2023-03-06T03:31:29.660Z,97358.47
2023-03-06T03:32:32.648Z,97355.56
2023-03-06T03:33:36.096Z,97353.41
2023-03-06T03:34:39.034Z,97352.16
2023-03-06T03:35:42.232Z,97349.44
2023-03-06T03:36:45.937Z,97349.97
2023-03-06T03:37:48.984Z,97355.41
2023-03-06T03:38:52.020Z,97351.25
2023-03-06T03:39:54.935Z,97349.44
2023-03-06T03:40:57.915Z,97350.16
2023-03-06T03:42:00.880Z,97350.88
2023-03-06T03:43:03.761Z,97344.78
2023-03-06T03:44:06.796Z,97352.53
2023-03-06T03:45:10.179Z,97340.97
2023-03-06T03:46:13.232Z,97348.22
2023-03-06T03:47:16.245Z,97345.50
2023-03-06T03:48:19.561Z,97345.34
2023-03-06T03:49:22.503Z,97341.53
2023-03-06T03:50:25.746Z,97347.28
2023-03-06T03:51:28.672Z,97345.12
2023-03-06T03:52:31.814Z,97339.72
2023-03-06T03:53:34.963Z,97351.25
2023-03-06T03:54:38.001Z,97340.59
2023-03-06T03:55:40.888Z,97340.44
2023-03-06T03:56:44.783Z,97345.84
2023-03-06T03:57:47.725Z,97341.69
2023-03-06T03:58:51.053Z,97341.53
2023-03-06T03:59:54.234Z,97346.19
2023-03-06T04:00:57.411Z,97344.41
2023-03-06T04:02:01.036Z,97346.94
2023-03-06T04:03:04.133Z,97348.37
2023-03-06T04:04:07.631Z,97349.81
2023-03-06T04:05:15.456Z,97343.69
2023-03-06T04:06:18.524Z,97344.56
2023-03-06T04:07:21.464Z,97338.66
2023-03-06T04:08:25.769Z,97345.12
2023-03-06T04:09:28.772Z,97340.44
2023-03-06T04:10:32.375Z,97344.22
2023-03-06T04:11:35.439Z,97344.06
2023-03-06T04:12:38.476Z,97350.00
2023-03-06T04:13:41.447Z,97352.53
2023-03-06T04:14:44.368Z,97349.81
2023-03-06T04:15:49.168Z,97351.09
2023-03-06T04:16:52.081Z,97345.66
2023-03-06T04:17:55.050Z,97347.28
2023-03-06T04:18:58.020Z,97351.97
2023-03-06T04:20:02.275Z,97354.50
2023-03-06T04:21:05.477Z,97353.06
2023-03-06T04:22:08.361Z,97353.78
2023-03-06T04:23:11.698Z,97352.69
2023-03-06T04:24:14.663Z,97353.78
2023-03-06T04:25:17.855Z,97352.69
2023-03-06T04:26:21.038Z,97347.66
2023-03-06T04:27:24.251Z,97353.06
2023-03-06T04:28:27.482Z,97347.44
2023-03-06T04:29:31.115Z,97341.31
2023-03-06T04:30:34.346Z,97345.47
2023-03-06T04:31:37.470Z,97348.72
2023-03-06T04:32:40.776Z,97347.66
2023-03-06T04:33:43.854Z,97340.97
2023-03-06T04:34:46.908Z,97346.38
2023-03-06T04:35:50.782Z,97341.53
2023-03-06T04:36:53.721Z,97336.62
2023-03-06T04:37:56.969Z,97340.59
2023-03-06T04:39:00.667Z,97335.19
2023-03-06T04:40:04.676Z,97338.63
2023-03-06T04:41:07.889Z,97338.63
2023-03-06T04:42:11.039Z,97334.47
2023-03-06T04:43:13.957Z,97336.81
2023-03-06T04:44:16.859Z,97334.47
2023-03-06T04:46:23.052Z,97336.09
2023-03-06T04:47:26.142Z,97332.47
2023-03-06T04:48:29.076Z,97342.75
2023-03-06T04:49:32.249Z,97337.16
2023-03-06T04:50:35.171Z,97339.16
2023-03-06T04:51:38.125Z,97336.44
2023-03-06T04:52:41.141Z,97335.53
2023-03-06T04:53:44.297Z,97336.78
2023-03-06T04:54:47.210Z,97337.50
2023-03-06T04:55:50.305Z,97333.56
2023-03-06T04:56:53.201Z,97334.47
2023-03-06T04:57:56.417Z,97332.47
2023-03-06T04:58:59.449Z,97337.16
2023-03-06T05:00:04.905Z,97341.16
2023-03-06T05:01:07.896Z,97337.72
2023-03-06T05:02:11.018Z,97336.44
2023-03-06T05:03:14.667Z,97335.91
2023-03-06T05:04:17.786Z,97329.06
2023-03-06T05:05:20.722Z,97332.47
2023-03-06T05:06:23.675Z,97326.91
2023-03-06T05:07:26.572Z,97326.16
2023-03-06T05:08:29.774Z,97336.78
2023-03-06T05:09:34.326Z,97337.50
2023-03-06T05:10:37.412Z,97327.63
2023-03-06T05:11:40.227Z,97329.59
2023-03-06T05:12:43.708Z,97325.25
2023-03-06T05:13:46.627Z,97323.81
2023-03-06T05:14:49.652Z,97329.22
2023-03-06T05:15:53.022Z,97330.50
2023-03-06T05:16:56.357Z,97324.91
2023-03-06T05:17:59.491Z,97330.66
2023-03-06T05:19:02.402Z,97328.88
2023-03-06T05:20:09.992Z,97326.34
2023-03-06T05:21:13.244Z,97324.91
2023-03-06T05:22:16.101Z,97334.63
2023-03-06T05:23:19.025Z,97337.34
2023-03-06T05:24:21.945Z,97333.75
2023-03-06T05:25:24.990Z,97339.16
2023-03-06T05:26:28.116Z,97333.19
2023-03-06T05:27:31.393Z,97338.63
2023-03-06T05:28:34.404Z,97335.34
2023-03-06T05:29:37.699Z,97335.72
2023-03-06T05:30:40.811Z,97336.78
2023-03-06T05:31:44.991Z,97331.38
2023-03-06T05:32:48.090Z,97334.47
2023-03-06T05:33:51.144Z,97329.94
2023-03-06T05:34:54.356Z,97332.47
2023-03-06T05:35:57.334Z,97333.03
2023-03-06T05:37:02.170Z,97324.19
2023-03-06T05:38:05.228Z,97337.16
2023-03-06T05:39:08.672Z,97335.19
2023-03-06T05:40:12.465Z,97333.03
2023-03-06T05:41:15.638Z,97333.56
2023-03-06T05:42:18.684Z,97338.81
2023-03-06T05:43:21.574Z,97343.84
2023-03-06T05:44:24.532Z,97340.78
2023-03-06T05:45:27.497Z,97335.91
2023-03-06T05:46:30.292Z,97339.34
2023-03-06T05:47:33.664Z,97335.91
2023-03-06T05:48:37.845Z,97335.72
2023-03-06T05:49:41.677Z,97333.41
2023-03-06T05:50:44.864Z,97333.41
2023-03-06T05:51:47.855Z,97329.78
2023-03-06T05:52:50.755Z,97332.47
2023-03-06T05:53:53.670Z,97324.19
2023-03-06T05:54:56.684Z,97327.78
2023-03-06T05:56:01.848Z,97338.63
2023-03-06T05:57:06.231Z,97338.81
2023-03-06T05:58:09.197Z,97331.94
2023-03-06T05:59:12.263Z,97336.62
2023-03-06T06:00:16.160Z,97335.19
2023-03-06T06:01:21.046Z,97337.00
2023-03-06T06:02:23.968Z,97340.94
2023-03-06T06:03:27.361Z,97333.37
2023-03-06T06:04:30.291Z,97338.22
2023-03-06T06:05:33.329Z,97336.44
2023-03-06T06:06:36.263Z,97343.13
2023-03-06T06:07:39.418Z,97341.87
2023-03-06T06:08:42.637Z,97337.91
2023-03-06T06:09:46.463Z,97337.91
2023-03-06T06:10:51.566Z,97331.22
2023-03-06T06:12:00.058Z,97340.06
2023-03-06T06:13:03.088Z,97333.03
2023-03-06T06:14:05.954Z,97329.97
2023-03-06T06:15:09.115Z,97336.13
2023-03-06T06:16:19.640Z,97340.81
2023-03-06T06:17:22.602Z,97340.81
2023-03-06T06:18:25.679Z,97345.66
2023-03-06T06:19:30.509Z,97343.69
2023-03-06T06:20:33.597Z,97347.84
2023-03-06T06:21:36.401Z,97343.34
2023-03-06T06:22:39.384Z,97342.25
2023-03-06T06:23:42.254Z,97348.75
2023-03-06T06:24:45.080Z,97343.34
2023-03-06T06:25:47.963Z,97350.19
2023-03-06T06:26:55.419Z,97350.91
2023-03-06T06:27:58.459Z,97348.22
2023-03-06T06:29:01.374Z,97352.38
2023-03-06T06:30:06.556Z,97355.09
2023-03-06T06:31:12.578Z,97358.53
2023-03-06T06:32:15.759Z,97357.25
2023-03-06T06:33:18.765Z,97351.28
2023-03-06T06:34:22.615Z,97352.00
2023-03-06T06:35:25.907Z,97357.44
2023-03-06T06:36:29.162Z,97354.72
2023-03-06T06:37:32.246Z,97359.62
2023-03-06T06:38:35.173Z,97352.75
2023-03-06T06:39:38.146Z,97352.94
2023-03-06T06:40:40.985Z,97350.94
2023-03-06T06:41:57.259Z,97357.97
2023-03-06T06:43:07.440Z,97351.31
2023-03-06T06:44:14.756Z,97348.78
2023-03-06T06:45:17.684Z,97346.09
2023-03-06T06:47:02.729Z,97350.22
2023-03-06T06:47:44.804Z,97349.16
2023-03-06T06:48:54.909Z,97354.75
2023-03-06T06:49:57.996Z,97350.78
2023-03-06T06:51:01.062Z,97352.41
2023-03-06T06:52:05.252Z,97343.03
2023-03-06T06:53:08.071Z,97346.63
2023-03-06T06:54:12.458Z,97348.81
2023-03-06T06:55:15.575Z,97349.69
2023-03-06T06:56:18.670Z,97347.34
2023-03-06T06:57:22.166Z,97346.81
2023-03-06T06:58:25.397Z,97356.19
2023-03-06T06:59:28.320Z,97349.53
2023-03-06T07:00:31.209Z,97355.13
2023-03-06T07:01:34.088Z,97354.59
2023-03-06T07:02:37.052Z,97349.88
2023-03-06T07:03:41.015Z,97358.19
2023-03-06T07:05:02.095Z,97355.69
2023-03-06T07:06:07.016Z,97362.53
2023-03-06T07:07:09.725Z,97356.00
2023-03-06T07:08:12.749Z,97360.34
2023-03-06T07:09:16.480Z,97352.94
2023-03-06T07:10:20.731Z,97361.25
2023-03-06T07:11:24.136Z,97370.31
2023-03-06T07:12:27.292Z,97364.87
2023-03-06T07:13:30.341Z,97371.91
2023-03-06T07:14:33.640Z,97365.97
2023-03-06T07:15:36.656Z,97364.50
2023-03-06T07:16:40.013Z,97368.66
2023-03-06T07:17:42.989Z,97369.38
2023-03-06T07:18:46.078Z,97368.09
2023-03-06T07:19:49.050Z,97375.34
2023-03-06T07:20:54.057Z,97377.31
2023-03-06T07:21:57.059Z,97373.34
2023-03-06T07:23:00.105Z,97378.03
2023-03-06T07:24:02.983Z,97375.72
2023-03-06T07:25:06.829Z,97376.97
2023-03-06T07:26:09.645Z,97379.50
2023-03-06T07:27:12.768Z,97375.34
2023-03-06T07:28:18.540Z,97368.66
2023-03-06T07:29:22.495Z,97367.94
2023-03-06T07:30:25.755Z,97373.34
2023-03-06T07:31:29.077Z,97372.28
2023-03-06T07:32:32.205Z,97376.97
2023-03-06T07:33:35.173Z,97373.16
2023-03-06T07:34:38.289Z,97374.06
2023-03-06T07:35:42.712Z,97372.28
2023-03-06T07:36:45.639Z,97373.00
2023-03-06T07:37:48.825Z,97372.81
2023-03-06T07:38:51.875Z,97368.62
2023-03-06T07:39:54.903Z,97373.16
2023-03-06T07:40:57.879Z,97373.34
2023-03-06T07:42:00.820Z,97372.28
2023-03-06T07:43:18.363Z,97372.63
2023-03-06T07:44:22.499Z,97375.34
2023-03-06T07:45:26.293Z,97373.69
2023-03-06T07:46:29.561Z,97378.59
2023-03-06T07:47:32.564Z,97381.28
2023-03-06T07:48:36.901Z,97378.03
2023-03-06T07:49:40.453Z,97383.09
2023-03-06T07:50:43.647Z,97376.78
2023-03-06T07:51:46.849Z,97385.47
2023-03-06T07:52:50.860Z,97379.28
2023-03-06T07:53:53.836Z,97386.19
2023-03-06T07:54:56.910Z,97377.34
2023-03-06T07:56:00.374Z,97384.19
2023-03-06T07:57:03.325Z,97375.34
2023-03-06T07:58:06.265Z,97382.56
2023-03-06T07:59:12.224Z,97386.34
2023-03-06T08:00:16.024Z,97384.19
2023-03-06T08:01:23.759Z,97387.44
2023-03-06T08:02:26.733Z,97388.88
2023-03-06T08:03:29.726Z,97385.81
2023-03-06T08:04:32.827Z,97387.97
2023-03-06T08:05:35.860Z,97384.56
2023-03-06T08:06:39.268Z,97390.53
2023-03-06T08:07:43.893Z,97390.12
2023-03-06T08:08:48.153Z,97389.25
2023-03-06T08:09:51.068Z,97384.38
2023-03-06T08:10:53.874Z,97393.22
2023-03-06T08:11:57.337Z,97383.28
2023-03-06T08:13:00.286Z,97383.12
2023-03-06T08:14:03.317Z,97391.25
2023-03-06T08:15:06.788Z,97380.94
2023-03-06T08:16:10.691Z,97386.53
2023-03-06T08:17:14.064Z,97380.41
2023-03-06T08:18:17.174Z,97382.00
2023-03-06T08:19:20.088Z,97383.47
2023-03-06T08:20:23.012Z,97385.28
2023-03-06T08:21:28.065Z,97385.81
2023-03-06T08:22:30.997Z,97383.62
2023-03-06T08:23:34.931Z,97386.34
2023-03-06T08:24:38.146Z,97386.53
2023-03-06T08:25:41.111Z,97386.87
2023-03-06T08:26:44.374Z,97385.22
2023-03-06T08:27:47.699Z,97391.00
2023-03-06T08:28:55.435Z,97400.06
2023-03-06T08:29:59.047Z,97391.75
2023-03-06T08:31:11.118Z,97386.44
2023-03-06T08:32:14.072Z,97382.62
2023-03-06T08:33:17.083Z,97387.50
2023-03-06T08:34:22.304Z,97381.53
2023-03-06T08:35:25.417Z,97385.72
2023-03-06T08:36:28.784Z,97387.88
2023-03-06T08:37:32.125Z,97378.47
2023-03-06T08:38:35.456Z,97378.81
2023-03-06T08:39:38.553Z,97383.34
2023-03-06T08:40:46.084Z,97386.72
2023-03-06T08:41:49.120Z,97379.31
2023-03-06T08:42:52.210Z,97378.03
2023-03-06T08:43:55.212Z,97387.44
2023-03-06T08:44:58.253Z,97374.38
2023-03-06T08:46:01.284Z,97376.88
2023-03-06T08:47:04.771Z,97378.87
2023-03-06T08:48:07.784Z,97377.41
2023-03-06T08:49:12.533Z,97383.38
2023-03-06T08:50:15.567Z,97379.72
2023-03-06T08:51:19.202Z,97379.47
2023-03-06T08:52:22.250Z,97382.69
2023-03-06T08:53:40.448Z,97371.69
2023-03-06T08:54:45.163Z,97372.41
2023-03-06T08:55:48.483Z,97364.06
2023-03-06T08:56:51.533Z,97378.47
2023-03-06T08:57:55.020Z,97376.28
2023-03-06T08:58:59.780Z,97371.00
2023-03-06T09:00:09.054Z,97361.34
2023-03-06T09:01:21.191Z,97358.31
2023-03-06T09:02:24.318Z,97360.28
2023-03-06T09:03:27.672Z,97368.84
2023-03-06T09:04:31.865Z,97360.12
2023-03-06T09:05:35.141Z,97358.13
2023-03-06T09:06:41.558Z,97361.19
2023-03-06T09:07:44.636Z,97361.25
2023-03-06T09:08:47.962Z,97348.69
2023-03-06T09:09:52.200Z,97357.50
2023-03-06T09:10:55.334Z,97348.41
2023-03-06T09:11:58.347Z,97346.97
2023-03-06T09:13:01.828Z,97351.34
2023-03-06T09:14:05.798Z,97350.75
2023-03-06T09:15:09.296Z,97347.41
2023-03-06T09:16:13.068Z,97351.50
2023-03-06T09:17:16.143Z,97355.63
2023-03-06T09:18:19.170Z,97346.13
2023-03-06T09:19:22.122Z,97341.00
2023-03-06T09:20:25.121Z,97344.06
2023-03-06T09:21:28.942Z,97343.84
2023-03-06T09:22:33.083Z,97346.63
2023-03-06T09:23:36.507Z,97333.59
2023-03-06T09:24:39.926Z,97326.66
2023-03-06T09:25:43.014Z,97332.91
2023-03-06T09:26:47.981Z,97329.38
2023-03-06T09:28:08.780Z,97324.66
2023-03-06T09:29:13.487Z,97332.03
2023-03-06T09:30:18.455Z,97328.88
2023-03-06T09:31:21.646Z,97325.94
2023-03-06T09:32:25.197Z,97328.81
2023-03-06T09:33:29.021Z,97328.88
2023-03-06T09:34:32.271Z,97333.78
2023-03-06T09:35:35.759Z,97331.22
2023-03-06T09:36:55.032Z,97321.88
2023-03-06T09:37:59.474Z,97330.03
2023-03-06T09:39:02.611Z,97317.63
2023-03-06T09:40:07.195Z,97321.53
2023-03-06T09:41:23.928Z,97321.03
2023-03-06T09:42:28.632Z,97316.06
2023-03-06T09:43:37.599Z,97320.53
2023-03-06T09:44:41.465Z,97318.47
2023-03-06T09:45:44.866Z,97318.59
2023-03-06T09:47:00.517Z,97311.94
2023-03-06T09:48:16.152Z,97322.25
2023-03-06T09:49:50.572Z,97321.28
2023-03-06T09:51:02.823Z,97320.88
2023-03-06T09:52:24.769Z,97326.91
2023-03-06T09:53:45.534Z,97323.28
2023-03-06T09:55:05.379Z,97328.66
2023-03-06T09:56:19.112Z,97323.94
2023-03-06T09:57:36.783Z,97323.44
2023-03-06T09:58:45.812Z,97324.41
2023-03-06T09:59:53.966Z,97327.28
2023-03-06T10:01:03.060Z,97320.50
2023-03-06T10:02:19.418Z,97318.34
2023-03-06T10:03:28.428Z,97320.75
2023-03-06T10:04:40.866Z,97320.81
2023-03-06T10:05:50.433Z,97320.09
2023-03-06T10:07:01.739Z,97323.75
2023-03-06T10:08:17.424Z,97314.34
2023-03-06T10:09:46.854Z,97318.87
2023-03-06T10:11:06.032Z,97320.47
2023-03-06T10:12:28.908Z,97323.50
2023-03-06T10:13:46.096Z,97318.75
2023-03-06T10:15:01.296Z,97329.25
2023-03-06T10:16:12.878Z,97324.78
2023-03-06T10:17:20.864Z,97324.47
2023-03-06T10:18:23.788Z,97322.19
2023-03-06T10:19:33.937Z,97326.22
2023-03-06T10:21:18.812Z,97323.34
2023-03-06T10:23:11.823Z,97319.66
2023-03-06T10:24:33.903Z,97316.28
2023-03-06T10:25:43.485Z,97324.63
2023-03-06T10:26:57.384Z,97321.84
2023-03-06T10:28:17.212Z,97316.44
2023-03-06T10:29:30.588Z,97320.84
2023-03-06T10:31:06.103Z,97321.81
2023-03-06T10:32:50.565Z,97311.09
2023-03-06T10:34:04.492Z,97319.34
2023-03-06T10:35:17.571Z,97312.06
2023-03-06T10:36:23.116Z,97311.66
2023-03-06T10:37:31.013Z,97314.31
2023-03-06T10:38:38.640Z,97304.94
2023-03-06T10:39:41.711Z,97302.66
2023-03-06T10:41:13.774Z,97303.37
2023-03-06T10:42:17.919Z,97295.94
2023-03-06T10:43:23.305Z,97297.94
2023-03-06T10:44:26.343Z,97298.47
2023-03-06T10:45:35.183Z,97298.66
2023-03-06T10:46:47.055Z,97293.53
2023-03-06T10:47:50.428Z,97286.09
2023-03-06T10:49:22.441Z,97290.63
2023-03-06T10:50:32.469Z,97292.63
2023-03-06T10:51:35.872Z,97288.69
2023-03-06T10:52:39.829Z,97279.09
2023-03-06T10:53:59.700Z,97271.75
2023-03-06T10:55:32.291Z,97280.47
2023-03-06T10:56:42.467Z,97276.06
2023-03-06T10:57:45.639Z,97272.16
2023-03-06T10:58:54.745Z,97267.50
2023-03-06T11:00:01.464Z,97266.59
2023-03-06T11:01:18.386Z,97269.75
2023-03-06T11:02:36.757Z,97266.72
2023-03-06T11:03:39.784Z,97265.31
2023-03-06T11:04:51.389Z,97259.66
2023-03-06T11:06:00.737Z,97260.38
2023-03-06T11:07:19.631Z,97261.59
2023-03-06T11:08:23.695Z,97255.91
2023-03-06T11:09:27.124Z,97254.84
2023-03-06T11:10:32.096Z,97250.37
2023-03-06T11:11:37.873Z,97240.63
2023-03-06T11:12:42.848Z,97247.81
2023-03-06T11:13:57.540Z,97241.97
2023-03-06T11:15:23.358Z,97242.03
2023-03-06T11:16:33.513Z,97237.56
2023-03-06T11:17:58.031Z,97235.56
2023-03-06T11:19:04.302Z,97234.66
2023-03-06T11:20:20.108Z,97230.19
2023-03-06T11:21:31.364Z,97223.53
2023-03-06T11:22:36.495Z,97224.81
2023-03-06T11:23:46.916Z,97221.38
2023-03-06T11:24:54.347Z,97217.53
2023-03-06T11:26:03.019Z,97217.38
2023-03-06T11:27:42.922Z,97215.34
2023-03-06T11:28:59.556Z,97206.94
2023-03-06T11:30:19.696Z,97201.91
2023-03-06T11:31:27.376Z,97197.19
2023-03-06T11:32:33.579Z,97195.03
2023-03-06T11:33:43.194Z,97194.31
2023-03-06T11:35:20.486Z,97193.22
2023-03-06T11:36:48.582Z,97183.19
2023-03-06T11:38:07.155Z,97186.38
2023-03-06T11:39:51.482Z,97175.03
2023-03-06T11:41:02.762Z,97176.59
2023-03-06T11:42:15.254Z,97176.78
2023-03-06T11:43:34.752Z,97172.09
2023-03-06T11:44:45.136Z,97177.78
2023-03-06T11:45:57.920Z,97173.06
2023-03-06T11:47:11.363Z,97173.19
2023-03-06T11:48:17.795Z,97162.44
2023-03-06T11:49:35.350Z,97171.22
2023-03-06T11:50:51.863Z,97166.94
2023-03-06T11:51:58.042Z,97165.97
2023-03-06T11:53:07.146Z,97161.78
2023-03-06T11:54:14.522Z,97159.19
2023-03-06T11:55:35.897Z,97162.66
2023-03-06T11:56:50.963Z,97151.75
2023-03-06T11:58:18.584Z,97149.63
2023-03-06T11:59:47.427Z,97147.75
2023-03-06T12:01:08.197Z,97143.72
2023-03-06T12:02:43.502Z,97148.16
2023-03-06T12:04:24.074Z,97149.87
2023-03-06T12:05:32.614Z,97142.97
2023-03-06T12:07:11.214Z,97145.25
2023-03-06T12:08:17.703Z,97137.25
2023-03-06T12:09:23.510Z,97143.28
2023-03-06T12:11:02.982Z,97134.84
2023-03-06T12:12:34.278Z,97135.72
2023-03-06T12:14:14.590Z,97138.16
2023-03-06T12:15:44.390Z,97131.28
2023-03-06T12:16:56.432Z,97130.00
2023-03-06T12:18:17.296Z,97136.59
2023-03-06T12:19:25.977Z,97131.59
2023-03-06T12:20:40.986Z,97132.59
2023-03-06T12:22:17.754Z,97133.91
2023-03-06T12:23:54.509Z,97139.16
2023-03-06T12:25:34.910Z,97138.88
2023-03-06T12:27:16.974Z,97133.91
2023-03-06T12:28:51.709Z,97125.28
2023-03-06T12:30:21.853Z,97126.16
2023-03-06T12:32:18.099Z,97123.72
2023-03-06T12:33:33.177Z,97119.25
2023-03-06T12:34:50.845Z,97121.97
2023-03-06T12:36:00.814Z,97121.97
2023-03-06T12:37:09.802Z,97114.97
2023-03-06T12:38:41.972Z,97117.84
2023-03-06T12:39:57.172Z,97119.56
2023-03-06T12:41:16.937Z,97123.00
2023-03-06T12:42:55.709Z,97115.69
2023-03-06T12:44:26.228Z,97113.69
2023-03-06T12:45:37.645Z,97112.97
2023-03-06T12:46:47.097Z,97113.41
2023-03-06T12:47:54.109Z,97121.88
2023-03-06T12:49:31.499Z,97108.25
2023-03-06T12:50:39.375Z,97107.53
2023-03-06T12:51:45.034Z,97113.84
2023-03-06T12:52:49.231Z,97106.97
2023-03-06T12:53:52.846Z,97104.50
2023-03-06T12:54:59.290Z,97112.56
2023-03-06T12:56:03.527Z,97109.22
2023-03-06T12:57:08.861Z,97104.22
2023-03-06T12:58:54.291Z,97104.50
2023-03-06T12:59:57.258Z,97107.53
2023-03-06T13:01:06.361Z,97107.22
2023-03-06T13:02:28.201Z,97106.38
2023-03-06T13:03:31.296Z,97110.97
2023-03-06T13:05:12.949Z,97096.75
2023-03-06T13:06:49.833Z,97101.19
2023-03-06T13:08:21.519Z,97101.19
2023-03-06T13:09:53.566Z,97100.34
2023-03-06T13:11:16.586Z,97090.72